Time;durP1;ratioP1;P1;durP2;ratioP2;P2;SDS_P1;SDS_P2;PMS_P1;PMS_P2;Temp;Humidity;BMP_temperature;BMP_pressure;BME280_temperature;BME280_humidity;BME280_pressure;Samples;Min_cycle;Max_cycle;Signal;HPM_P1;HPM_P2
2021/05/13 00:01:26;;;;;;;4.40;4.00;;;16.70;92.90;;;;;;5067913;28;20224;-76
2021/05/13 00:03:54;;;;;;;4.57;4.03;;;16.60;93.50;;;;;;5069522;28;20668;-76
2021/05/13 00:06:20;;;;;;;5.60;4.27;;;16.50;94.20;;;;;;5066492;28;20212;-76
2021/05/13 00:08:55;;;;;;;4.93;3.90;;;16.50;94.80;;;;;;5067123;28;20296;-76
2021/05/13 00:11:27;;;;;;;4.20;3.80;;;16.50;95.30;;;;;;5068820;28;20239;-76
2021/05/13 00:13:53;;;;;;;4.67;3.77;;;16.50;95.70;;;;;;5066772;28;20229;-76
2021/05/13 00:16:22;;;;;;;5.70;4.20;;;16.40;96.10;;;;;;5070336;28;20197;-76
2021/05/13 00:18:49;;;;;;;4.53;3.27;;;16.40;96.70;;;;;;5070351;28;20291;-75
2021/05/13 00:21:15;;;;;;;5.03;3.73;;;16.30;97.10;;;;;;5086630;28;20229;-75
2021/05/13 00:23:42;;;;;;;7.00;4.40;;;16.40;97.50;;;;;;5069545;28;20212;-75
2021/05/13 00:26:10;;;;;;;4.57;3.93;;;16.30;98.00;;;;;;5100629;27;20320;-75
2021/05/13 00:28:36;;;;;;;4.83;3.70;;;16.30;98.40;;;;;;5067603;28;20239;-76
2021/05/13 00:31:03;;;;;;;3.97;3.57;;;16.70;99.10;;;;;;5102597;27;20224;-76
2021/05/13 00:33:29;;;;;;;5.27;3.50;;;16.20;99.50;;;;;;5069417;28;20263;-75
2021/05/13 00:35:56;;;;;;;4.23;3.83;;;16.10;99.90;;;;;;5069814;28;20224;-75
2021/05/13 00:38:22;;;;;;;3.03;2.83;;;16.10;99.90;;;;;;5071759;28;20215;-75
2021/05/13 00:40:49;;;;;;;4.03;3.60;;;16.10;99.90;;;;;;5077054;28;20201;-76
2021/05/13 00:43:16;;;;;;;3.40;3.03;;;16.10;99.90;;;;;;5069409;28;20576;-75
2021/05/13 00:45:42;;;;;;;4.83;4.00;;;16.00;99.90;;;;;;5069163;28;20236;-75
2021/05/13 00:48:13;;;;;;;4.77;4.27;;;15.90;99.90;;;;;;5072754;28;20193;-76
2021/05/13 00:50:40;;;;;;;4.73;4.23;;;15.80;99.90;;;;;;5070134;28;20300;-75
2021/05/13 00:53:07;;;;;;;4.50;4.10;;;15.80;99.90;;;;;;5070220;28;20217;-76
2021/05/13 00:55:34;;;;;;;3.90;3.60;;;15.80;99.90;;;;;;5068092;28;20271;-75
2021/05/13 00:58:02;;;;;;;4.83;3.93;;;15.70;99.90;;;;;;5069506;28;20224;-75
2021/05/13 01:00:35;;;;;;;5.20;4.10;;;15.70;99.90;;;;;;5068797;28;20414;-76
2021/05/13 01:03:02;;;;;;;4.80;4.20;;;15.60;99.90;;;;;;5066296;28;20213;-75
2021/05/13 01:05:30;;;;;;;5.17;3.90;;;15.60;99.90;;;;;;5071858;28;20282;-75
2021/05/13 01:07:58;;;;;;;7.10;4.03;;;15.60;99.90;;;;;;5066006;28;20249;-76
2021/05/13 01:10:25;;;;;;;3.57;3.27;;;15.50;99.90;;;;;;5061692;28;20657;-76
2021/05/13 01:12:57;;;;;;;3.67;3.37;;;15.50;99.90;;;;;;5069803;28;20289;-75
2021/05/13 01:15:25;;;;;;;4.07;3.50;;;15.50;99.90;;;;;;5070293;28;20205;-76
2021/05/13 01:18:06;;;;;;;3.50;3.20;;;15.50;99.90;;;;;;5069911;28;20207;-76
2021/05/13 01:20:33;;;;;;;4.30;3.90;;;15.50;99.90;;;;;;5063080;28;20201;-76
2021/05/13 01:23:01;;;;;;;4.37;3.97;;;15.50;99.90;;;;;;5071168;28;20290;-75
2021/05/13 01:25:29;;;;;;;3.70;3.40;;;15.40;99.90;;;;;;5065777;28;20300;-75
2021/05/13 01:27:58;;;;;;;3.80;3.00;;;15.40;99.90;;;;;;5070663;28;20333;-75
2021/05/13 01:30:24;;;;;;;3.57;3.13;;;15.40;99.90;;;;;;5062768;28;20247;-75
2021/05/13 01:32:51;;;;;;;5.53;3.97;;;15.50;99.90;;;;;;5070732;28;20228;-75
2021/05/13 01:35:19;;;;;;;4.73;4.07;;;15.50;99.90;;;;;;5069993;28;20279;-75
2021/05/13 01:37:46;;;;;;;8.80;4.30;;;15.50;99.90;;;;;;5070844;28;20240;-75
2021/05/13 01:40:15;;;;;;;5.00;3.60;;;15.40;99.90;;;;;;5068306;28;20197;-75
2021/05/13 01:42:41;;;;;;;3.90;3.10;;;15.40;99.90;;;;;;5070410;28;20208;-75
2021/05/13 01:45:09;;;;;;;5.60;3.73;;;15.40;99.90;;;;;;5067727;28;20313;-75
2021/05/13 01:47:36;;;;;;;5.67;3.50;;;15.40;99.90;;;;;;5071487;28;20227;-75
2021/05/13 01:50:04;;;;;;;3.93;3.53;;;15.30;99.90;;;;;;5068067;28;20249;-75
2021/05/13 01:52:31;;;;;;;4.17;3.10;;;15.30;99.90;;;;;;5068247;28;20219;-75
2021/05/13 01:54:57;;;;;;;6.77;3.53;;;15.30;99.90;;;;;;5063566;28;20272;-75
2021/05/13 01:57:25;;;;;;;25.07;5.07;;;15.30;99.90;;;;;;5067620;28;20318;-75
2021/05/13 01:59:51;;;;;;;16.23;5.33;;;15.30;99.90;;;;;;5067549;28;20228;-75
2021/05/13 02:02:20;;;;;;;10.83;4.23;;;15.30;99.90;;;;;;5059129;28;20200;-75
2021/05/13 02:04:47;;;;;;;11.27;4.53;;;15.20;99.90;;;;;;5066273;28;20199;-75
2021/05/13 02:07:15;;;;;;;11.43;4.73;;;15.20;99.90;;;;;;5068489;28;20212;-76
2021/05/13 02:09:41;;;;;;;8.13;3.77;;;15.20;99.90;;;;;;5065063;28;20216;-75
2021/05/13 02:12:08;;;;;;;7.83;3.63;;;15.10;99.90;;;;;;5068191;28;20250;-75
2021/05/13 02:14:36;;;;;;;9.37;4.40;;;15.10;99.90;;;;;;5065625;28;20211;-75
2021/05/13 02:17:02;;;;;;;6.10;3.40;;;15.10;99.90;;;;;;5067147;28;20208;-76
2021/05/13 02:19:29;;;;;;;4.60;3.27;;;15.00;99.90;;;;;;5073798;28;20203;-76
2021/05/13 02:21:55;;;;;;;5.37;2.77;;;15.00;99.90;;;;;;5069795;28;20223;-75
2021/05/13 02:24:22;;;;;;;3.63;2.70;;;15.00;99.90;;;;;;5069084;28;20284;-75
2021/05/13 02:26:49;;;;;;;2.83;2.63;;;15.10;99.90;;;;;;5066729;28;20310;-75
2021/05/13 02:29:15;;;;;;;4.27;2.97;;;15.10;99.90;;;;;;5068056;28;20692;-75
2021/05/13 02:31:42;;;;;;;2.77;2.57;;;15.10;99.90;;;;;;5068064;28;20644;-75
2021/05/13 02:34:09;;;;;;;3.00;2.77;;;15.10;99.90;;;;;;5070271;28;20275;-75
2021/05/13 02:36:36;;;;;;;3.70;2.80;;;15.00;99.90;;;;;;5068336;28;20692;-75
2021/05/13 02:39:04;;;;;;;2.80;2.50;;;15.00;99.90;;;;;;5071373;28;20192;-75
2021/05/13 02:41:31;;;;;;;3.50;3.20;;;15.00;99.90;;;;;;5068512;28;20213;-75
2021/05/13 02:43:57;;;;;;;2.77;2.43;;;15.00;99.90;;;;;;5066799;28;20224;-75
2021/05/13 02:46:24;;;;;;;3.30;3.10;;;15.00;99.90;;;;;;5068258;28;20727;-75
2021/05/13 02:48:51;;;;;;;3.10;2.80;;;14.90;99.90;;;;;;5068186;28;20267;-75
2021/05/13 02:51:18;;;;;;;4.43;3.70;;;14.90;99.90;;;;;;5067910;28;20257;-75
2021/05/13 02:53:44;;;;;;;2.90;2.70;;;14.90;99.90;;;;;;5079789;28;20258;-75
2021/05/13 02:56:11;;;;;;;3.40;3.10;;;14.90;99.90;;;;;;5092017;27;20225;-75
2021/05/13 02:58:37;;;;;;;3.73;3.40;;;14.90;99.90;;;;;;5062650;28;20200;-74
2021/05/13 03:01:11;;;;;;;3.33;3.07;;;14.80;99.90;;;;;;5062366;28;20577;-75
2021/05/13 03:03:38;;;;;;;3.40;3.03;;;14.80;99.90;;;;;;5062593;28;20308;-75
2021/05/13 03:06:05;;;;;;;2.77;2.57;;;14.80;99.90;;;;;;5063429;28;20641;-75
2021/05/13 03:08:32;;;;;;;2.97;2.67;;;14.90;99.90;;;;;;5061077;28;20204;-75
2021/05/13 03:10:59;;;;;;;3.10;2.63;;;14.90;99.90;;;;;;5064672;28;20215;-75
2021/05/13 03:13:26;;;;;;;2.80;2.60;;;14.90;99.90;;;;;;5070362;28;20749;-75
2021/05/13 03:15:53;;;;;;;3.67;2.50;;;14.90;99.90;;;;;;5065906;28;20203;-75
2021/05/13 03:18:22;;;;;;;4.07;2.37;;;14.90;99.90;;;;;;5062268;28;20225;-75
2021/05/13 03:20:52;;;;;;;3.73;2.33;;;15.00;99.90;;;;;;5061351;28;20215;-75
2021/05/13 03:23:25;;;;;;;2.57;2.33;;;15.00;99.90;;;;;;5063298;28;20337;-75
2021/05/13 03:25:58;;;;;;;2.80;2.60;;;15.00;99.90;;;;;;5064341;28;20197;-75
2021/05/13 03:28:25;;;;;;;3.10;2.80;;;15.00;99.90;;;;;;5065744;28;20676;-75
2021/05/13 03:30:51;;;;;;;3.13;2.90;;;15.00;99.90;;;;;;5066492;28;20197;-75
2021/05/13 03:33:18;;;;;;;3.33;2.90;;;15.00;99.90;;;;;;5061417;28;20308;-75
2021/05/13 03:35:45;;;;;;;2.80;2.60;;;15.00;99.90;;;;;;5065994;28;20226;-75
2021/05/13 03:38:12;;;;;;;2.50;2.30;;;15.10;99.90;;;;;;5063554;28;20689;-75
2021/05/13 03:40:41;;;;;;;2.60;2.40;;;15.00;99.90;;;;;;5066400;28;20204;-75
2021/05/13 03:43:08;;;;;;;4.27;2.30;;;15.10;99.90;;;;;;5067560;28;20341;-75
2021/05/13 03:45:35;;;;;;;2.40;2.20;;;15.10;99.90;;;;;;5064418;28;20258;-74
2021/05/13 03:48:02;;;;;;;2.57;2.37;;;15.20;99.90;;;;;;5063166;28;20228;-75
2021/05/13 03:50:30;;;;;;;4.30;2.63;;;15.30;99.90;;;;;;5066882;28;20195;-75
2021/05/13 03:52:57;;;;;;;2.97;2.77;;;15.30;99.90;;;;;;5069192;28;20237;-75
2021/05/13 03:55:24;;;;;;;2.23;2.03;;;15.30;99.90;;;;;;5061695;28;20290;-75
2021/05/13 03:57:54;;;;;;;2.20;2.10;;;15.30;99.90;;;;;;5066614;28;20304;-75
2021/05/13 04:00:27;;;;;;;2.90;2.60;;;15.30;99.90;;;;;;5063982;28;20231;-75
2021/05/13 04:02:53;;;;;;;2.97;2.03;;;15.40;99.90;;;;;;5067327;28;20292;-76
2021/05/13 04:05:20;;;;;;;4.77;1.97;;;15.40;99.90;;;;;;5065899;28;20226;-75
2021/05/13 04:07:48;;;;;;;4.40;2.50;;;15.50;99.90;;;;;;5063313;28;20564;-75
2021/05/13 04:10:15;;;;;;;4.33;2.60;;;15.50;99.90;;;;;;5063821;28;20193;-76
2021/05/13 04:12:43;;;;;;;8.87;3.00;;;15.50;99.90;;;;;;5068219;28;20224;-75
2021/05/13 04:15:12;;;;;;;6.10;3.17;;;15.50;99.90;;;;;;5070865;28;20205;-75
2021/05/13 04:17:39;;;;;;;11.03;3.37;;;15.60;99.90;;;;;;5084617;28;20207;-75
2021/05/13 04:20:08;;;;;;;12.33;2.87;;;15.60;99.90;;;;;;5062946;28;20681;-75
2021/05/13 04:22:34;;;;;;;8.93;3.10;;;15.60;99.90;;;;;;5067732;28;20207;-75
2021/05/13 04:25:01;;;;;;;5.80;2.80;;;15.60;99.90;;;;;;5068241;28;20205;-75
2021/05/13 04:27:28;;;;;;;11.50;2.53;;;15.60;99.90;;;;;;5070245;28;20564;-75
2021/05/13 04:29:54;;;;;;;23.53;4.50;;;15.70;99.90;;;;;;5066099;28;20288;-75
2021/05/13 04:32:22;;;;;;;13.73;3.50;;;15.70;99.90;;;;;;5069905;28;20205;-75
2021/05/13 04:34:49;;;;;;;14.63;3.77;;;15.80;99.90;;;;;;5070810;28;20334;-75
2021/05/13 04:37:15;;;;;;;8.90;3.03;;;15.80;99.90;;;;;;5067481;28;20207;-75
2021/05/13 04:39:42;;;;;;;10.30;3.87;;;15.80;99.90;;;;;;5070263;28;20225;-75
2021/05/13 04:42:08;;;;;;;20.33;3.80;;;15.80;99.90;;;;;;5069636;28;20243;-75
2021/05/13 04:44:36;;;;;;;13.00;3.40;;;15.80;99.90;;;;;;5067708;28;20611;-75
2021/05/13 04:47:19;;;;;;;6.17;2.53;;;15.80;99.90;;;;;;5077484;28;20562;-75
2021/05/13 04:49:49;;;;;;;8.07;2.60;;;15.90;99.90;;;;;;5069336;28;20205;-75
2021/05/13 04:52:17;;;;;;;5.70;2.57;;;16.00;99.90;;;;;;5070994;28;20209;-75
2021/05/13 04:54:44;;;;;;;3.90;2.43;;;16.10;99.90;;;;;;5067752;28;20239;-75
2021/05/13 04:57:11;;;;;;;6.03;2.33;;;16.10;99.90;;;;;;5069505;28;20628;-75
2021/05/13 04:59:37;;;;;;;4.00;1.70;;;16.20;99.90;;;;;;5070887;28;20267;-75
2021/05/13 05:02:04;;;;;;;2.80;1.50;;;16.30;99.90;;;;;;5069871;28;20192;-75
2021/05/13 05:04:30;;;;;;;1.60;1.17;;;16.40;99.90;;;;;;5071323;28;20199;-75
2021/05/13 05:06:58;;;;;;;2.47;1.40;;;16.50;99.90;;;;;;5068819;28;20301;-75
2021/05/13 05:09:24;;;;;;;0.90;0.90;;;16.50;99.90;;;;;;5065753;28;20194;-75
2021/05/13 05:11:51;;;;;;;2.10;1.10;;;16.60;99.90;;;;;;5071214;28;20208;-75
2021/05/13 05:14:18;;;;;;;0.87;0.87;;;16.70;99.90;;;;;;5070896;28;20549;-75
2021/05/13 05:16:44;;;;;;;1.57;1.10;;;16.80;99.90;;;;;;5069638;28;20212;-75
2021/05/13 05:19:11;;;;;;;2.43;1.13;;;16.90;99.30;;;;;;5069819;28;20205;-75
2021/05/13 05:21:38;;;;;;;0.90;0.90;;;16.90;98.60;;;;;;5070440;28;20263;-75
2021/05/13 05:24:06;;;;;;;1.33;1.00;;;17.00;98.20;;;;;;5069585;28;20564;-75
2021/05/13 05:26:33;;;;;;;1.47;1.00;;;17.10;97.70;;;;;;5067587;28;20204;-75
2021/05/13 05:29:00;;;;;;;1.20;1.10;;;17.20;97.00;;;;;;5066981;28;20210;-75
2021/05/13 05:31:27;;;;;;;2.93;1.17;;;17.30;96.40;;;;;;5065678;28;20203;-75
2021/05/13 05:33:53;;;;;;;1.20;1.10;;;17.40;96.00;;;;;;5063195;28;20724;-76
2021/05/13 05:36:20;;;;;;;2.33;1.33;;;17.50;95.70;;;;;;5070828;28;20342;-75
2021/05/13 05:38:47;;;;;;;1.10;1.10;;;17.70;95.20;;;;;;5071337;28;20316;-75
2021/05/13 05:41:14;;;;;;;1.27;1.23;;;18.10;94.30;;;;;;5068705;28;20283;-75
2021/05/13 05:43:40;;;;;;;1.37;1.27;;;18.90;92.50;;;;;;5067488;28;20201;-75
2021/05/13 05:46:07;;;;;;;2.30;1.02;;;19.60;90.90;;;;;;5069197;28;20279;-75
2021/05/13 05:48:33;;;;;;;1.27;1.10;;;19.90;88.50;;;;;;5070909;28;20565;-75
2021/05/13 05:51:00;;;;;;;2.95;1.23;;;20.50;86.60;;;;;;5069286;28;20269;-74
2021/05/13 05:53:26;;;;;;;1.15;1.08;;;22.00;81.50;;;;;;5069309;28;20228;-75
2021/05/13 05:55:53;;;;;;;1.98;1.63;;;23.80;73.40;;;;;;5068042;28;20735;-75
2021/05/13 05:58:21;;;;;;;1.42;1.33;;;25.40;66.00;;;;;;5064395;28;20199;-75
2021/05/13 06:00:47;;;;;;;1.20;1.10;;;26.80;59.60;;;;;;5065408;28;20634;-76
2021/05/13 06:03:14;;;;;;;1.05;1.00;;;27.90;55.60;;;;;;5072122;28;20717;-75
2021/05/13 06:05:40;;;;;;;1.23;1.13;;;28.90;52.30;;;;;;5067049;28;20201;-76
2021/05/13 06:08:07;;;;;;;1.25;1.17;;;29.90;49.60;;;;;;5070354;28;20284;-76
2021/05/13 06:10:34;;;;;;;1.08;0.98;;;31.00;47.30;;;;;;5064414;28;20209;-76
2021/05/13 06:13:00;;;;;;;3.90;1.00;;;32.10;45.10;;;;;;5072625;28;20365;-76
2021/05/13 06:15:29;;;;;;;1.00;1.00;;;33.00;43.10;;;;;;5066229;28;20215;-74
2021/05/13 06:17:55;;;;;;;4.80;0.93;;;33.60;41.50;;;;;;5057864;28;20577;-75
2021/05/13 06:20:24;;;;;;;1.35;1.20;;;34.30;40.20;;;;;;5064181;28;20196;-76
2021/05/13 06:22:51;;;;;;;3.40;1.20;;;35.40;38.70;;;;;;5063106;28;20193;-75
2021/05/13 06:25:18;;;;;;;1.00;1.00;;;36.70;37.80;;;;;;5063752;28;20193;-75
2021/05/13 06:27:45;;;;;;;1.38;1.35;;;38.00;35.60;;;;;;5064778;28;20293;-76
2021/05/13 06:30:14;;;;;;;1.10;1.10;;;39.30;33.80;;;;;;5062229;28;20231;-74
2021/05/13 06:32:42;;;;;;;1.63;1.42;;;40.30;32.50;;;;;;5060809;28;20862;-74
2021/05/13 06:35:09;;;;;;;1.30;1.30;;;41.20;31.00;;;;;;5066519;28;20202;-73
2021/05/13 06:37:36;;;;;;;1.23;1.23;;;41.70;30.10;;;;;;5061251;28;20220;-73
2021/05/13 06:40:04;;;;;;;2.63;1.20;;;42.20;29.20;;;;;;5061755;28;20201;-73
2021/05/13 06:42:30;;;;;;;1.48;1.33;;;42.60;28.50;;;;;;5062617;28;20730;-75
2021/05/13 06:44:57;;;;;;;3.63;1.50;;;42.90;27.90;;;;;;5062320;28;20233;-73
2021/05/13 06:47:23;;;;;;;1.95;1.50;;;43.10;27.70;;;;;;5066491;28;20196;-73
2021/05/13 06:49:51;;;;;;;2.95;1.60;;;42.90;27.20;;;;;;5061184;28;20203;-74
2021/05/13 06:52:18;;;;;;;1.65;1.60;;;42.60;26.90;;;;;;5058321;28;20304;-74
2021/05/13 06:54:45;;;;;;;1.13;1.13;;;42.40;27.10;;;;;;5062603;28;20193;-73
2021/05/13 06:57:12;;;;;;;2.70;1.20;;;42.50;26.80;;;;;;5054733;28;20193;-75
2021/05/13 06:59:41;;;;;;;1.30;1.30;;;42.40;26.70;;;;;;5058333;28;20574;-74
2021/05/13 07:02:08;;;;;;;1.58;1.30;;;42.30;26.40;;;;;;5058536;28;20189;-74
2021/05/13 07:04:35;;;;;;;1.33;1.20;;;42.20;26.30;;;;;;5057182;28;20275;-75
2021/05/13 07:07:02;;;;;;;1.20;1.20;;;42.20;26.20;;;;;;5056870;28;20212;-74
2021/05/13 07:09:29;;;;;;;1.25;1.20;;;42.20;26.20;;;;;;5086710;28;20204;-75
2021/05/13 07:11:56;;;;;;;3.38;1.75;;;42.30;26.10;;;;;;5064966;28;20204;-75
2021/05/13 07:14:23;;;;;;;1.65;1.50;;;42.40;25.90;;;;;;5060398;28;20690;-74
2021/05/13 07:16:50;;;;;;;1.45;1.42;;;42.40;25.70;;;;;;5060833;28;20232;-74
2021/05/13 07:19:17;;;;;;;1.40;1.40;;;42.20;25.90;;;;;;5060411;28;20235;-74
2021/05/13 07:21:44;;;;;;;1.70;1.60;;;42.10;26.20;;;;;;5059180;28;20201;-75
2021/05/13 07:24:12;;;;;;;2.42;1.70;;;41.90;25.50;;;;;;5058389;28;20204;-75
2021/05/13 07:26:38;;;;;;;2.67;1.60;;;41.80;25.50;;;;;;5057717;28;20193;-74
2021/05/13 07:29:06;;;;;;;2.55;1.80;;;41.50;25.60;;;;;;5058105;28;20656;-73
2021/05/13 07:31:33;;;;;;;1.85;1.70;;;41.00;25.90;;;;;;5060026;28;20220;-74
2021/05/13 07:34:00;;;;;;;1.60;1.60;;;40.00;26.20;;;;;;5061565;28;20212;-74
2021/05/13 07:36:28;;;;;;;1.60;1.45;;;38.80;26.90;;;;;;5063223;28;20224;-72
2021/05/13 07:38:55;;;;;;;1.63;1.60;;;37.70;27.50;;;;;;5058682;28;20712;-74
2021/05/13 07:41:23;;;;;;;1.60;1.50;;;36.70;28.10;;;;;;5058277;28;20189;-73
2021/05/13 07:43:52;;;;;;;1.20;1.20;;;35.80;28.50;;;;;;5064484;28;20216;-74
2021/05/13 07:46:20;;;;;;;1.67;1.58;;;35.00;29.00;;;;;;5062856;28;20494;-74
2021/05/13 07:48:50;;;;;;;1.33;1.17;;;34.10;29.40;;;;;;5065648;28;20201;-74
2021/05/13 07:51:17;;;;;;;1.50;1.40;;;33.70;30.00;;;;;;5065701;28;20661;-74
2021/05/13 07:53:43;;;;;;;1.50;1.40;;;33.20;30.40;;;;;;5062947;28;20720;-74
2021/05/13 07:56:10;;;;;;;2.08;1.10;;;32.80;30.70;;;;;;5064553;28;20201;-74
2021/05/13 07:58:37;;;;;;;1.67;1.20;;;32.40;31.00;;;;;;5060821;28;20196;-74
2021/05/13 08:01:04;;;;;;;1.42;1.33;;;32.10;31.60;;;;;;5069307;28;20204;-74
2021/05/13 08:03:31;;;;;;;1.83;1.48;;;31.90;31.90;;;;;;5069853;28;20680;-75
2021/05/13 08:05:57;;;;;;;1.85;1.10;;;31.70;32.30;;;;;;5066283;28;20197;-74
2021/05/13 08:08:24;;;;;;;1.33;1.27;;;31.60;32.80;;;;;;5064274;28;20198;-75
2021/05/13 08:10:50;;;;;;;3.45;1.55;;;31.50;32.80;;;;;;5067057;28;20293;-74
2021/05/13 08:13:17;;;;;;;2.30;1.45;;;31.30;32.60;;;;;;5069842;28;20253;-74
2021/05/13 08:15:44;;;;;;;1.40;1.30;;;31.10;32.60;;;;;;5065828;28;20189;-74
2021/05/13 08:18:11;;;;;;;1.33;1.23;;;31.00;32.80;;;;;;5063910;28;20243;-73
2021/05/13 08:20:37;;;;;;;1.55;1.20;;;31.10;33.30;;;;;;5061336;28;20729;-74
2021/05/13 08:23:05;;;;;;;3.25;1.20;;;31.20;33.20;;;;;;5065944;28;20189;-75
2021/05/13 08:25:31;;;;;;;1.00;1.00;;;31.30;32.90;;;;;;5062728;28;20205;-73
2021/05/13 08:27:58;;;;;;;1.00;1.00;;;31.40;32.50;;;;;;5065523;28;20193;-74
2021/05/13 08:30:25;;;;;;;2.30;1.15;;;31.40;32.00;;;;;;5065356;28;20304;-75
2021/05/13 08:32:52;;;;;;;2.05;1.10;;;31.40;31.80;;;;;;5066602;28;20630;-73
2021/05/13 08:35:19;;;;;;;4.15;1.20;;;31.40;31.90;;;;;;5060946;28;21000;-75
2021/05/13 08:37:45;;;;;;;1.35;1.30;;;31.50;32.90;;;;;;5067023;28;20229;-74
2021/05/13 08:40:12;;;;;;;2.80;1.10;;;31.60;32.30;;;;;;5063476;28;20316;-72
2021/05/13 08:42:39;;;;;;;4.00;1.10;;;31.70;32.60;;;;;;5065896;28;20217;-74
2021/05/13 08:45:07;;;;;;;1.30;1.25;;;31.90;32.70;;;;;;5061197;28;20821;-74
2021/05/13 08:47:37;;;;;;;1.40;1.30;;;32.10;32.70;;;;;;5066563;28;20201;-75
2021/05/13 08:50:06;;;;;;;1.20;1.20;;;32.30;32.70;;;;;;5064233;28;20657;-75
2021/05/13 08:52:33;;;;;;;3.03;1.50;;;32.40;32.50;;;;;;5064254;28;20217;-75
2021/05/13 08:55:01;;;;;;;2.58;1.27;;;32.50;32.30;;;;;;5062387;28;20232;-75
2021/05/13 08:57:29;;;;;;;1.42;1.30;;;32.60;32.20;;;;;;5062039;28;20565;-74
2021/05/13 08:59:58;;;;;;;1.42;1.25;;;32.90;31.90;;;;;;5062929;28;20250;-74
2021/05/13 09:02:27;;;;;;;2.03;1.20;;;33.50;31.50;;;;;;5061896;28;20205;-75
2021/05/13 09:04:56;;;;;;;1.33;1.23;;;34.60;30.50;;;;;;5062660;28;20197;-74
2021/05/13 09:07:26;;;;;;;1.17;1.08;;;35.90;29.70;;;;;;5063889;28;20282;-75
2021/05/13 09:09:57;;;;;;;1.30;1.30;;;37.40;28.90;;;;;;5065868;28;20496;-75
2021/05/13 09:12:26;;;;;;;1.52;1.52;;;38.90;27.60;;;;;;5067046;28;20224;-70
2021/05/13 09:15:01;;;;;;;1.20;1.20;;;40.20;26.80;;;;;;5061507;28;20201;-73
2021/05/13 09:17:29;;;;;;;2.40;1.40;;;41.40;26.10;;;;;;5066174;28;20258;-74
2021/05/13 09:19:57;;;;;;;2.10;1.30;;;42.40;25.30;;;;;;5062964;28;20192;-73
2021/05/13 09:22:26;;;;;;;1.90;1.20;;;43.30;24.60;;;;;;5065062;28;20204;-73
2021/05/13 09:24:55;;;;;;;1.33;1.33;;;43.90;24.40;;;;;;5061472;28;20296;-73
2021/05/13 09:27:29;;;;;;;1.50;1.50;;;44.40;23.80;;;;;;5056700;28;20197;-73
2021/05/13 09:30:06;;;;;;;2.78;1.80;;;44.80;23.50;;;;;;5060095;28;20302;-73
2021/05/13 09:32:33;;;;;;;1.85;1.70;;;45.40;23.30;;;;;;5062867;28;20228;-73
2021/05/13 09:35:05;;;;;;;3.97;1.92;;;46.00;22.90;;;;;;5045913;28;20616;-73
2021/05/13 09:37:44;;;;;;;3.58;2.10;;;46.10;22.40;;;;;;5065995;28;20624;-73
2021/05/13 09:40:12;;;;;;;5.50;1.70;;;46.20;22.40;;;;;;5062984;28;20197;-74
2021/05/13 09:42:39;;;;;;;7.75;2.28;;;46.30;22.60;;;;;;5062649;28;20197;-73
2021/05/13 09:45:09;;;;;;;4.40;2.17;;;46.30;22.50;;;;;;5060278;28;20228;-73
2021/05/13 09:47:37;;;;;;;7.97;2.20;;;46.30;22.60;;;;;;5065841;28;20212;-72
2021/05/13 09:50:21;;;;;;;10.43;2.70;;;46.50;22.50;;;;;;5064354;28;20228;-72
2021/05/13 09:52:53;;;;;;;2.00;1.90;;;46.50;22.00;;;;;;5062297;28;20220;-73
2021/05/13 09:55:26;;;;;;;4.82;2.10;;;46.40;22.10;;;;;;5062218;28;20722;-74
2021/05/13 09:57:59;;;;;;;5.50;2.35;;;46.20;22.10;;;;;;5065783;28;20649;-74
2021/05/13 10:00:37;;;;;;;5.80;2.60;;;46.30;22.10;;;;;;5058367;28;20696;-73
2021/05/13 10:03:08;;;;;;;6.60;2.40;;;46.30;21.90;;;;;;5060588;28;20732;-73
2021/05/13 10:05:34;;;;;;;2.38;2.17;;;46.30;21.80;;;;;;5056659;28;20197;-74
2021/05/13 10:08:02;;;;;;;2.17;1.98;;;46.00;21.80;;;;;;5065283;28;20538;-73
2021/05/13 10:10:29;;;;;;;2.38;2.10;;;45.90;21.80;;;;;;5057251;28;20827;-72
2021/05/13 10:12:57;;;;;;;4.82;2.08;;;46.00;21.90;;;;;;5059744;28;20244;-73
2021/05/13 10:15:25;;;;;;;2.60;2.40;;;46.20;21.50;;;;;;5055997;28;20236;-71
2021/05/13 10:17:55;;;;;;;1.88;1.77;;;46.10;21.50;;;;;;5058317;28;20197;-73
2021/05/13 10:20:24;;;;;;;2.90;1.98;;;46.30;21.60;;;;;;5060288;28;20232;-73
2021/05/13 10:22:51;;;;;;;9.38;2.30;;;46.40;21.30;;;;;;5060484;28;20283;-73
2021/05/13 10:25:24;;;;;;;2.28;2.13;;;46.40;21.80;;;;;;5062638;28;20669;-73
2021/05/13 10:27:53;;;;;;;2.78;2.08;;;46.10;21.30;;;;;;5058822;28;20216;-73
2021/05/13 10:30:26;;;;;;;2.40;2.15;;;46.40;21.40;;;;;;5060381;28;20193;-74
2021/05/13 10:33:12;;;;;;;2.78;2.13;;;46.70;21.80;;;;;;5063163;28;20275;-74
2021/05/13 10:35:40;;;;;;;5.30;1.95;;;46.80;20.90;;;;;;5055700;28;20219;-69
2021/05/13 10:38:12;;;;;;;2.72;1.80;;;46.40;21.10;;;;;;5061369;28;20309;-69
2021/05/13 10:40:46;;;;;;;2.92;2.03;;;46.20;21.30;;;;;;5064209;28;20193;-69
2021/05/13 10:43:13;;;;;;;2.35;2.15;;;46.10;21.10;;;;;;5063530;28;20204;-69
2021/05/13 10:45:41;;;;;;;3.38;2.03;;;46.20;21.10;;;;;;5061412;28;20238;-70
2021/05/13 10:48:22;;;;;;;2.60;2.40;;;46.40;21.20;;;;;;5062122;28;20255;-70
2021/05/13 10:50:55;;;;;;;3.08;2.17;;;46.40;21.00;;;;;;5064081;28;20215;-70
2021/05/13 10:53:46;;;;;;;4.07;2.17;;;46.50;21.00;;;;;;5061890;28;20650;-69
2021/05/13 10:56:23;;;;;;;2.72;2.50;;;46.40;20.90;;;;;;5059010;28;20198;-69
2021/05/13 10:59:02;;;;;;;3.15;2.30;;;45.80;20.80;;;;;;5065410;28;20227;-70
2021/05/13 11:01:37;;;;;;;5.28;2.53;;;45.60;20.90;;;;;;5061673;28;20254;-69
2021/05/13 11:04:41;;;;;;;5.05;2.40;;;45.50;21.00;;;;;;5064654;28;20196;-69
2021/05/13 11:07:26;;;;;;;2.63;1.90;;;44.90;21.20;;;;;;5058715;28;20200;-69
2021/05/13 11:10:01;;;;;;;2.30;2.20;;;44.40;21.30;;;;;;5061612;28;20204;-69
2021/05/13 11:12:37;;;;;;;2.28;2.17;;;44.30;21.40;;;;;;5066497;28;20191;-69
2021/05/13 11:15:12;;;;;;;2.10;2.00;;;44.20;22.10;;;;;;5058809;28;20247;-69
2021/05/13 11:18:06;;;;;;;6.60;2.20;;;44.00;21.50;;;;;;5063000;28;20199;-70
2021/05/13 11:20:34;;;;;;;4.72;2.40;;;43.80;21.60;;;;;;5017050;28;20493;-69
2021/05/13 11:23:03;;;;;;;2.75;2.05;;;43.50;21.70;;;;;;5037437;28;20279;-69
2021/05/13 11:25:37;;;;;;;2.63;2.08;;;43.10;21.80;;;;;;5018951;28;20222;-69
2021/05/13 11:28:37;;;;;;;3.40;2.40;;;42.70;21.70;;;;;;5004872;28;20198;-70
2021/05/13 11:31:18;;;;;;;2.65;2.03;;;42.20;22.00;;;;;;5012618;28;20209;-69
2021/05/13 11:33:47;;;;;;;2.60;1.90;;;41.80;22.10;;;;;;5016789;28;20276;-69
2021/05/13 11:36:15;;;;;;;2.03;1.77;;;41.30;22.20;;;;;;5004458;28;20285;-69
2021/05/13 11:38:42;;;;;;;5.03;2.20;;;41.00;22.40;;;;;;5022723;28;20276;-69
2021/05/13 11:41:09;;;;;;;2.15;2.00;;;40.50;22.40;;;;;;5020190;28;20198;-69
2021/05/13 11:43:37;;;;;;;2.83;2.00;;;40.10;22.70;;;;;;5023414;28;20682;-69
2021/05/13 11:46:05;;;;;;;2.38;2.20;;;39.90;23.30;;;;;;4996594;28;20698;-70
2021/05/13 11:48:36;;;;;;;4.38;1.85;;;39.50;22.60;;;;;;5006232;28;20589;-70
2021/05/13 11:51:06;;;;;;;1.95;1.85;;;38.60;22.80;;;;;;5021709;28;20214;-69
2021/05/13 11:53:33;;;;;;;3.85;1.77;;;38.00;23.10;;;;;;5001249;28;20500;-69
2021/05/13 11:56:00;;;;;;;3.10;1.65;;;37.50;23.40;;;;;;5018936;28;20241;-69
2021/05/13 11:58:40;;;;;;;6.47;1.90;;;36.80;23.70;;;;;;5056065;28;20205;-70
2021/05/13 12:01:28;;;;;;;1.77;1.60;;;36.20;24.00;;;;;;5060182;28;20288;-76
2021/05/13 12:04:10;;;;;;;3.10;1.90;;;35.50;24.40;;;;;;5074783;28;20583;-74
2021/05/13 12:06:48;;;;;;;2.67;2.20;;;35.40;24.20;;;;;;5089747;28;20299;-73
2021/05/13 12:09:16;;;;;;;2.83;2.60;;;35.00;24.30;;;;;;5060298;28;20197;-73
2021/05/13 12:11:44;;;;;;;3.10;1.90;;;34.60;24.60;;;;;;5060137;28;20276;-74
2021/05/13 12:14:12;;;;;;;4.93;2.00;;;34.40;24.60;;;;;;5068090;28;20220;-74
2021/05/13 12:16:42;;;;;;;2.85;2.42;;;34.10;24.90;;;;;;5069068;28;20625;-75
2021/05/13 12:19:13;;;;;;;3.95;1.73;;;33.80;25.30;;;;;;5051138;28;20201;-73
2021/05/13 12:21:40;;;;;;;10.73;2.03;;;33.40;25.70;;;;;;5058624;28;20212;-73
2021/05/13 12:24:08;;;;;;;7.50;2.33;;;32.90;26.30;;;;;;5058161;28;20581;-73
2021/05/13 12:26:37;;;;;;;4.57;1.80;;;32.30;26.90;;;;;;5057919;28;20195;-72
2021/05/13 12:29:05;;;;;;;2.55;2.00;;;31.70;27.50;;;;;;5088644;28;20194;-72
2021/05/13 12:31:33;;;;;;;2.95;1.75;;;31.10;27.80;;;;;;5058323;28;20229;-74
2021/05/13 12:34:03;;;;;;;8.93;1.92;;;30.70;28.50;;;;;;5059293;28;20727;-72
2021/05/13 12:36:32;;;;;;;7.88;1.67;;;30.30;28.70;;;;;;5064143;28;20724;-74
2021/05/13 12:38:59;;;;;;;14.00;1.98;;;29.90;28.80;;;;;;5064799;28;20284;-73
2021/05/13 12:41:28;;;;;;;18.02;2.55;;;29.70;29.10;;;;;;5066135;28;20204;-73
2021/05/13 12:44:12;;;;;;;7.68;2.15;;;29.30;29.10;;;;;;5061806;28;20189;-74
2021/05/13 12:46:46;;;;;;;7.15;1.73;;;29.00;29.30;;;;;;5066034;28;20250;-68
2021/05/13 12:49:20;;;;;;;2.85;1.30;;;28.70;29.90;;;;;;5063484;28;20219;-69
2021/05/13 12:52:00;;;;;;;6.53;1.67;;;28.40;30.10;;;;;;5063976;28;20227;-69
2021/05/13 12:54:27;;;;;;;2.85;1.50;;;28.20;30.40;;;;;;5062252;28;20205;-69